Time;durP1;ratioP1;P1;durP2;ratioP2;P2;SDS_P1;SDS_P2;PMS_P1;PMS_P2;Temp;Humidity;BMP_temperature;BMP_pressure;BME280_temperature;BME280_humidity;BME280_pressure;Samples;Min_cycle;Max_cycle;Signal;HPM_P1;HPM_P2
2022/01/14 00:01:17;;;;;;;46.60;23.20;;;1.80;99.90;;;;;;4991208;28;20271;-89
2022/01/14 00:03:44;;;;;;;50.15;22.63;;;1.30;99.90;;;;;;4990025;28;20224;-89
2022/01/14 00:06:10;;;;;;;34.67;21.73;;;3.40;99.90;;;;;;4989658;28;20210;-90
2022/01/14 00:08:35;;;;;;;40.90;22.92;;;1.30;99.90;;;;;;5006675;28;20197;-89
2022/01/14 00:11:03;;;;;;;47.23;25.23;;;1.30;99.90;;;;;;4985002;28;20200;-90
2022/01/14 00:16:06;;;;;;;39.22;21.90;;;1.50;99.90;;;;;;4979702;28;20184;-89
2022/01/14 00:18:32;;;;;;;40.07;21.20;;;1.30;99.90;;;;;;4982424;28;20644;-88
2022/01/14 00:21:00;;;;;;;45.43;23.30;;;1.10;99.90;;;;;;4971573;28;20550;-89
2022/01/14 00:23:33;;;;;;;42.80;21.40;;;1.50;99.90;;;;;;4983605;28;20991;-88
2022/01/14 00:34:28;;;;;;;39.60;22.77;;;3.30;99.90;;;;;;4910219;29;20244;-88
2022/01/14 00:36:54;;;;;;;42.27;22.40;;;1.40;99.90;;;;;;4959659;28;20201;-87
2022/01/14 00:39:20;;;;;;;46.80;22.50;;;;;;;;;;4971733;28;20293;-87
2022/01/14 00:41:46;;;;;;;44.88;23.40;;;1.80;99.90;;;;;;4986513;28;20422;-88
2022/01/14 00:44:15;;;;;;;41.63;22.00;;;3.30;99.90;;;;;;4988119;28;20181;-87
2022/01/14 00:46:43;;;;;;;36.33;20.38;;;1.40;99.90;;;;;;4987537;28;20582;-87
2022/01/14 00:49:10;;;;;;;50.10;22.73;;;1.80;99.90;;;;;;4972980;28;20629;-88
2022/01/14 00:51:35;;;;;;;47.50;23.30;;;2.30;99.90;;;;;;4969380;28;20436;-88
2022/01/14 00:54:04;;;;;;;37.93;20.43;;;0.90;99.90;;;;;;4988987;28;20173;-88
2022/01/14 00:56:44;;;;;;;48.13;23.73;;;1.70;99.90;;;;;;4969003;28;20762;-88
2022/01/14 00:59:18;;;;;;;36.53;20.80;;;1.40;99.90;;;;;;4989517;28;20213;-87
2022/01/14 01:01:48;;;;;;;28.48;18.38;;;1.80;99.90;;;;;;4978839;28;20191;-87
2022/01/14 01:04:19;;;;;;;42.83;22.08;;;1.50;99.90;;;;;;4970119;28;20231;-87
2022/01/14 01:06:46;;;;;;;46.83;20.67;;;1.40;99.90;;;;;;4960678;28;20228;-88
2022/01/14 01:09:13;;;;;;;33.80;19.77;;;1.50;99.90;;;;;;4968956;28;20205;-88
2022/01/14 01:11:46;;;;;;;38.88;22.45;;;1.70;99.90;;;;;;4968580;28;20578;-88
2022/01/14 01:14:20;;;;;;;33.25;18.35;;;3.90;99.90;;;;;;4985721;28;20181;-88
2022/01/14 01:16:46;;;;;;;45.95;23.63;;;2.10;99.90;;;;;;4963190;28;20193;-87
2022/01/14 01:19:12;;;;;;;44.07;24.90;;;;;;;;;;4964219;28;20182;-88
2022/01/14 01:21:38;;;;;;;36.55;19.77;;;1.80;99.90;;;;;;4985777;28;21025;-89
2022/01/14 01:24:04;;;;;;;37.47;21.67;;;1.70;99.90;;;;;;4961367;28;20551;-88
2022/01/14 01:26:34;;;;;;;39.55;21.25;;;1.90;99.90;;;;;;4967833;28;20434;-88
2022/01/14 01:29:49;;;;;;;35.22;20.67;;;1.80;99.90;;;;;;4970487;28;20196;-88
2022/01/14 01:31:49;;;;;;;33.15;21.80;;;2.20;99.90;;;;;;4974012;28;20358;-88
2022/01/14 01:34:18;;;;;;;37.73;17.77;;;1.70;99.90;;;;;;4974216;28;20283;-88
2022/01/14 01:36:47;;;;;;;38.42;20.58;;;1.50;99.90;;;;;;4938304;28;20197;-88
2022/01/14 01:39:20;;;;;;;37.70;21.92;;;1.60;99.90;;;;;;4991966;28;20218;-87
2022/01/14 01:41:49;;;;;;;35.20;19.77;;;1.90;99.90;;;;;;4969262;28;20204;-88
2022/01/14 01:44:18;;;;;;;36.47;20.67;;;1.80;99.90;;;;;;4990945;28;20493;-88
2022/01/14 01:46:53;;;;;;;40.58;22.42;;;1.90;99.90;;;;;;4964766;28;20208;-88
2022/01/14 01:49:22;;;;;;;38.83;22.00;;;2.00;99.90;;;;;;4974052;28;20312;-88
2022/01/14 01:51:50;;;;;;;45.38;24.70;;;1.70;99.90;;;;;;4973191;28;20195;-87
2022/01/14 01:54:17;;;;;;;51.47;25.63;;;1.70;99.90;;;;;;4965382;28;20186;-88
2022/01/14 01:56:43;;;;;;;47.10;25.83;;;1.50;99.90;;;;;;4989087;28;20228;-88
2022/01/14 01:59:11;;;;;;;52.77;25.47;;;1.40;99.90;;;;;;4974146;28;20185;-88
2022/01/14 02:01:41;;;;;;;55.10;25.58;;;1.60;99.90;;;;;;4988688;28;20433;-88
2022/01/14 02:04:07;;;;;;;49.28;25.73;;;1.50;99.90;;;;;;4991787;28;20184;-88
2022/01/14 02:06:33;;;;;;;56.50;28.00;;;1.60;99.90;;;;;;4969173;28;20194;-88
2022/01/14 02:08:59;;;;;;;49.55;26.00;;;;;;;;;;4973187;28;20472;-87
2022/01/14 02:11:24;;;;;;;50.15;24.85;;;1.80;99.90;;;;;;4972416;28;20381;-88
2022/01/14 02:13:54;;;;;;;37.17;20.37;;;1.50;99.90;;;;;;4972486;28;20223;-89
2022/01/14 02:16:33;;;;;;;39.00;21.63;;;;;;;;;;4972122;28;20659;-88
2022/01/14 02:19:19;;;;;;;39.70;22.05;;;2.00;99.90;;;;;;4973912;28;20181;-88
2022/01/14 02:27:04;;;;;;;41.20;24.48;;;2.60;99.90;;;;;;4983671;28;20197;-88
2022/01/14 02:29:30;;;;;;;58.97;26.77;;;1.70;99.90;;;;;;4982146;28;20552;-88
2022/01/14 02:31:56;;;;;;;53.43;25.73;;;1.80;99.90;;;;;;4966430;28;20189;-88
2022/01/14 02:34:22;;;;;;;40.50;23.30;;;1.40;99.90;;;;;;4966251;28;20185;-89
2022/01/14 02:36:48;;;;;;;38.47;23.47;;;1.40;99.90;;;;;;4987106;28;20667;-88
2022/01/14 02:39:16;;;;;;;48.85;22.25;;;1.40;99.90;;;;;;4990853;28;20171;-88
2022/01/14 02:41:43;;;;;;;38.03;22.45;;;1.60;99.90;;;;;;4953921;28;20204;-88
2022/01/14 02:44:18;;;;;;;51.83;24.70;;;1.30;99.90;;;;;;4972905;28;20165;-86
2022/01/14 02:46:52;;;;;;;44.10;24.40;;;1.40;99.90;;;;;;4956595;28;20208;-88
2022/01/14 02:49:18;;;;;;;39.40;22.20;;;1.60;99.90;;;;;;4983752;28;20684;-88
2022/01/14 02:51:44;;;;;;;40.35;21.38;;;1.40;99.90;;;;;;4988210;28;20197;-88
2022/01/14 02:54:16;;;;;;;40.93;22.10;;;;;;;;;;4990880;28;20536;-89
2022/01/14 02:56:43;;;;;;;37.22;21.98;;;1.60;99.90;;;;;;4985857;28;20240;-88
2022/01/14 02:59:14;;;;;;;43.50;25.00;;;1.30;99.90;;;;;;4988699;28;20197;-88
2022/01/14 03:01:41;;;;;;;49.13;26.75;;;1.40;99.90;;;;;;4973373;28;20497;-88
2022/01/14 03:04:08;;;;;;;43.28;24.60;;;1.30;99.90;;;;;;4990891;28;20185;-88
2022/01/14 03:06:34;;;;;;;44.97;22.00;;;2.00;99.90;;;;;;4971262;28;20272;-88
2022/01/14 03:09:00;;;;;;;40.10;20.33;;;1.30;99.90;;;;;;4964336;28;20368;-88
2022/01/14 03:11:33;;;;;;;42.88;22.02;;;1.10;99.90;;;;;;4988879;28;20263;-87
2022/01/14 03:13:59;;;;;;;53.05;25.23;;;1.80;99.90;;;;;;5017375;23;20348;-91
2022/01/14 03:16:25;;;;;;;43.25;22.90;;;0.90;99.90;;;;;;4955894;28;20582;-91
2022/01/14 03:18:53;;;;;;;38.50;23.70;;;1.20;99.90;;;;;;4953966;28;20182;-91
2022/01/14 03:21:27;;;;;;;48.40;25.48;;;1.00;99.90;;;;;;4955057;28;20472;-92
2022/01/14 03:24:15;;;;;;;44.93;24.13;;;1.10;99.90;;;;;;4626004;28;10000257;-91
2022/01/14 03:26:40;;;;;;;49.78;26.05;;;1.20;99.90;;;;;;4959028;28;20269;-91
2022/01/14 03:29:06;;;;;;;51.67;27.50;;;1.20;99.90;;;;;;4951106;28;20791;-90
2022/01/14 03:31:31;;;;;;;52.10;29.17;;;0.90;99.90;;;;;;4946964;28;20511;-91
2022/01/14 03:33:59;;;;;;;50.60;29.37;;;0.50;99.90;;;;;;4949368;28;20194;-91
2022/01/14 03:36:26;;;;;;;53.15;28.88;;;0.90;99.90;;;;;;4951140;28;20193;-91
2022/01/14 03:38:52;;;;;;;56.72;29.95;;;1.00;99.90;;;;;;4951528;28;20190;-91
2022/01/14 03:41:17;;;;;;;47.80;28.20;;;0.90;99.90;;;;;;4953162;28;20423;-91
2022/01/14 03:43:43;;;;;;;45.73;27.17;;;0.80;99.90;;;;;;4953722;28;20194;-92
2022/01/14 03:46:09;;;;;;;57.57;27.60;;;0.90;99.90;;;;;;4966360;28;20194;-91
2022/01/14 03:48:35;;;;;;;54.30;31.80;;;0.90;99.90;;;;;;4961790;28;20437;-92
2022/01/14 03:51:01;;;;;;;45.58;23.05;;;0.80;99.90;;;;;;4953486;28;20703;-91
2022/01/14 03:53:27;;;;;;;48.20;23.37;;;1.00;99.90;;;;;;4610440;28;10000141;-91
2022/01/14 03:55:52;;;;;;;58.00;29.37;;;3.00;99.90;;;;;;4954433;28;20606;-90
2022/01/14 03:58:18;;;;;;;62.13;26.73;;;1.00;99.90;;;;;;4951357;28;20248;-91
2022/01/14 04:00:44;;;;;;;51.97;26.43;;;;;;;;;;4968014;28;20202;-91
2022/01/14 04:03:10;;;;;;;62.95;29.88;;;1.10;99.90;;;;;;4963898;28;20648;-91
2022/01/14 04:05:36;;;;;;;50.00;27.37;;;0.00;99.90;;;;;;4947410;29;20187;-91
2022/01/14 04:08:02;;;;;;;49.00;25.47;;;;;;;;;;4956440;28;20683;-90
2022/01/14 04:10:28;;;;;;;47.83;26.15;;;1.20;99.90;;;;;;4944692;29;20493;-90
2022/01/14 04:13:05;;;;;;;54.08;28.88;;;0.70;99.90;;;;;;4951945;28;20197;-90
2022/01/14 04:15:39;;;;;;;54.03;25.17;;;2.30;99.90;;;;;;4953660;28;20201;-91
2022/01/14 04:18:06;;;;;;;43.67;26.08;;;1.20;99.90;;;;;;4933490;29;20182;-89
2022/01/14 04:20:32;;;;;;;44.80;24.63;;;1.50;99.90;;;;;;4954971;28;20182;-90
2022/01/14 04:22:58;;;;;;;50.47;26.17;;;1.20;99.90;;;;;;4971260;28;20189;-90
2022/01/14 04:25:24;;;;;;;56.63;25.80;;;1.20;99.90;;;;;;4955308;28;20229;-90
2022/01/14 04:27:51;;;;;;;48.80;25.77;;;1.10;99.90;;;;;;4953581;28;20435;-90
2022/01/14 04:30:19;;;;;;;36.55;22.20;;;1.20;99.90;;;;;;4955961;28;20447;-91
2022/01/14 04:32:45;;;;;;;37.53;21.60;;;1.00;99.90;;;;;;4948967;28;20198;-90
2022/01/14 04:35:10;;;;;;;34.87;22.20;;;1.30;99.90;;;;;;4970634;28;20193;-91
2022/01/14 04:37:36;;;;;;;45.17;23.47;;;1.30;99.90;;;;;;4971423;28;20197;-91
2022/01/14 04:40:03;;;;;;;38.20;22.47;;;1.20;99.90;;;;;;4942204;29;20417;-91
2022/01/14 04:42:29;;;;;;;44.42;23.20;;;1.30;99.90;;;;;;4945890;28;20198;-90
2022/01/14 04:44:56;;;;;;;40.90;22.73;;;0.90;99.90;;;;;;4954493;28;20254;-90
2022/01/14 04:47:43;;;;;;;39.63;23.83;;;-0.20;99.90;;;;;;4968993;28;20205;-92
2022/01/14 04:50:11;;;;;;;47.88;23.50;;;0.60;99.90;;;;;;4970919;28;20213;-90
2022/01/14 04:52:36;;;;;;;44.72;23.17;;;3.60;99.90;;;;;;4957108;28;20183;-91
2022/01/14 04:55:03;;;;;;;43.87;25.63;;;;;;;;;;4948541;29;20254;-90
2022/01/14 04:57:28;;;;;;;48.63;23.23;;;2.70;99.90;;;;;;4966619;28;20190;-90
2022/01/14 04:59:54;;;;;;;50.63;24.90;;;0.70;99.90;;;;;;4974477;28;20707;-91
2022/01/14 05:02:19;;;;;;;45.13;21.30;;;0.00;99.90;;;;;;4971315;28;20198;-91
2022/01/14 05:04:46;;;;;;;42.53;22.90;;;0.90;99.90;;;;;;4955669;28;20198;-91
2022/01/14 05:07:22;;;;;;;38.70;23.73;;;0.70;99.90;;;;;;4970589;28;20599;-90
2022/01/14 05:09:57;;;;;;;43.67;25.65;;;0.90;99.90;;;;;;4955794;28;20747;-90
2022/01/14 05:12:26;;;;;;;44.17;22.80;;;0.90;99.90;;;;;;4935885;28;20289;-91
2022/01/14 05:14:52;;;;;;;49.30;23.83;;;1.00;99.90;;;;;;4953787;28;20303;-91
2022/01/14 05:17:17;;;;;;;47.13;24.42;;;0.70;99.90;;;;;;4955723;28;20185;-91
2022/01/14 05:19:43;;;;;;;39.40;21.00;;;0.90;99.90;;;;;;4955682;28;20603;-91
2022/01/14 05:22:10;;;;;;;39.95;23.98;;;0.60;99.90;;;;;;4966950;28;20205;-91
2022/01/14 05:24:35;;;;;;;36.97;21.77;;;0.60;99.90;;;;;;4944775;28;20255;-90
2022/01/14 05:27:01;;;;;;;46.37;23.20;;;0.70;99.90;;;;;;4972766;28;20201;-91
2022/01/14 05:29:27;;;;;;;38.87;22.00;;;0.90;99.90;;;;;;4967411;28;20226;-89
2022/01/14 05:32:01;;;;;;;37.70;24.40;;;1.00;99.90;;;;;;4945532;28;20202;-91
2022/01/14 05:34:26;;;;;;;52.55;24.20;;;0.90;99.90;;;;;;4957948;28;20188;-91
2022/01/14 05:36:52;;;;;;;47.83;25.13;;;1.10;99.90;;;;;;4953424;28;20527;-91
2022/01/14 05:39:20;;;;;;;37.70;23.30;;;0.60;99.90;;;;;;4963418;28;20178;-91
2022/01/14 05:41:46;;;;;;;40.95;23.20;;;1.00;99.90;;;;;;4959726;28;20196;-91
2022/01/14 05:44:12;;;;;;;49.42;26.90;;;0.90;99.90;;;;;;4947143;29;20202;-90
2022/01/14 05:46:37;;;;;;;39.70;21.50;;;0.70;99.90;;;;;;4960716;28;20185;-91
2022/01/14 05:49:03;;;;;;;37.40;22.90;;;1.00;99.90;;;;;;4954446;28;20225;-90
2022/01/14 05:51:29;;;;;;;49.57;22.93;;;1.20;99.90;;;;;;4974839;28;20206;-91
2022/01/14 05:53:55;;;;;;;48.80;25.07;;;0.80;99.90;;;;;;4967088;28;20434;-91
2022/01/14 05:56:20;;;;;;;45.07;23.63;;;1.20;99.90;;;;;;4954785;28;20196;-92
2022/01/14 05:58:46;;;;;;;31.67;21.13;;;1.10;99.90;;;;;;4949021;29;20186;-92
2022/01/14 06:01:12;;;;;;;40.40;21.97;;;1.10;99.90;;;;;;4969421;28;20277;-91
2022/01/14 06:03:38;;;;;;;40.10;23.38;;;1.20;99.90;;;;;;4966147;28;20236;-91
2022/01/14 06:06:03;;;;;;;34.63;19.93;;;0.60;99.90;;;;;;4958448;28;20198;-92
2022/01/14 06:08:29;;;;;;;31.27;20.17;;;0.80;99.90;;;;;;4970950;28;20229;-88
2022/01/14 06:10:55;;;;;;;39.47;20.93;;;0.70;99.90;;;;;;4959141;28;20241;-91
2022/01/14 06:13:20;;;;;;;39.97;22.00;;;0.40;99.90;;;;;;4941878;29;20226;-90
2022/01/14 06:15:46;;;;;;;46.00;23.93;;;0.90;99.90;;;;;;4930661;28;20278;-92
2022/01/14 06:18:12;;;;;;;39.83;23.60;;;0.50;99.90;;;;;;4940832;29;20188;-92
2022/01/14 06:20:38;;;;;;;35.90;20.27;;;;;;;;;;4964985;28;20186;-91
2022/01/14 06:23:04;;;;;;;51.50;24.70;;;0.80;99.90;;;;;;4929338;29;20319;-90
2022/01/14 06:25:30;;;;;;;35.10;21.63;;;;;;;;;;4947945;29;20318;-91
2022/01/14 06:27:55;;;;;;;38.65;23.88;;;0.70;99.90;;;;;;4944816;29;20195;-92
2022/01/14 06:30:23;;;;;;;44.50;21.30;;;;;;;;;;4946403;29;20225;-93
2022/01/14 06:32:56;;;;;;;46.35;24.40;;;0.60;99.90;;;;;;4946297;29;20608;-93
2022/01/14 06:35:31;;;;;;;45.50;23.75;;;0.60;99.90;;;;;;4933174;29;20218;-94
2022/01/14 06:37:57;;;;;;;43.30;24.02;;;0.40;99.90;;;;;;4945642;29;20198;-92
2022/01/14 06:40:24;;;;;;;41.25;23.38;;;0.00;99.90;;;;;;4928384;29;20650;-92
2022/01/14 06:42:50;;;;;;;48.65;23.38;;;2.50;99.90;;;;;;4935403;29;20238;-91
2022/01/14 06:45:26;;;;;;;38.80;21.13;;;0.70;99.90;;;;;;4953549;29;20254;-92
2022/01/14 06:47:53;;;;;;;44.97;23.63;;;2.90;99.90;;;;;;4972229;28;20204;-91
2022/01/14 06:50:21;;;;;;;54.47;26.65;;;2.10;99.90;;;;;;4929235;29;20211;-92
2022/01/14 06:52:47;;;;;;;47.03;25.58;;;2.00;99.90;;;;;;4966952;29;20195;-93
2022/01/14 06:55:13;;;;;;;49.60;23.38;;;0.70;99.90;;;;;;4951585;29;20190;-92
2022/01/14 06:57:39;;;;;;;53.22;25.60;;;0.70;99.90;;;;;;4941879;29;20187;-90
2022/01/14 07:00:11;;;;;;;38.17;23.17;;;0.30;99.90;;;;;;4946678;29;20205;-93
2022/01/14 07:02:37;;;;;;;45.30;24.25;;;1.30;99.90;;;;;;4912908;29;20183;-91
2022/01/14 07:05:04;;;;;;;47.13;25.43;;;;;;;;;;4948365;29;20190;-89
2022/01/14 07:07:30;;;;;;;44.58;23.65;;;0.50;99.90;;;;;;4980262;28;20412;-93
2022/01/14 07:09:56;;;;;;;51.38;26.48;;;0.60;99.90;;;;;;4951796;28;20221;-90
2022/01/14 07:12:37;;;;;;;59.80;27.10;;;0.60;99.90;;;;;;4957804;29;20194;-91
2022/01/14 07:15:06;;;;;;;50.67;25.10;;;1.30;99.90;;;;;;4948240;28;20611;-92
2022/01/14 07:17:32;;;;;;;44.80;23.27;;;0.50;99.90;;;;;;4948854;29;20534;-90
2022/01/14 07:20:05;;;;;;;43.67;22.13;;;3.00;99.90;;;;;;4960006;28;20186;-92
2022/01/14 07:22:31;;;;;;;42.40;22.67;;;2.20;99.90;;;;;;4941131;29;20179;-92
2022/01/14 07:25:00;;;;;;;37.30;22.50;;;;;;;;;;4946865;29;20682;-90
2022/01/14 07:27:27;;;;;;;35.13;22.65;;;0.90;99.90;;;;;;4964715;28;20483;-92
2022/01/14 07:30:06;;;;;;;44.58;25.60;;;1.10;99.90;;;;;;4950290;28;20203;-92
2022/01/14 07:32:53;;;;;;;;;;;;;;;;;;;;;
2022/01/14 07:35:19;;;;;;;45.67;24.90;;;3.20;99.90;;;;;;4960760;29;20294;-91
2022/01/14 07:37:49;;;;;;;58.75;29.55;;;2.20;99.90;;;;;;4946821;29;20182;-92
2022/01/14 07:40:15;;;;;;;56.95;25.98;;;1.40;99.90;;;;;;4938441;29;20187;-89
2022/01/14 07:42:41;;;;;;;55.13;30.53;;;;;;;;;;4946126;29;20189;-89
2022/01/14 07:45:10;;;;;;;56.97;28.55;;;1.40;99.90;;;;;;4946821;29;20477;-91
2022/01/14 07:47:39;;;;;;;62.55;32.28;;;2.40;99.90;;;;;;4946972;29;20189;-91
2022/01/14 07:50:05;;;;;;;53.00;28.77;;;2.80;99.90;;;;;;4944064;29;20218;-91
2022/01/14 07:52:31;;;;;;;59.17;31.20;;;2.10;99.90;;;;;;4961239;29;20602;-92
2022/01/14 07:54:57;;;;;;;78.77;30.97;;;;;;;;;;4941641;29;20198;-91
2022/01/14 07:57:23;;;;;;;66.95;32.42;;;1.70;99.90;;;;;;4945015;29;20462;-92
2022/01/14 08:00:00;;;;;;;63.35;29.15;;;3.50;99.90;;;;;;4947270;29;20202;-91
2022/01/14 08:02:26;;;;;;;59.30;28.92;;;2.10;99.90;;;;;;4931029;29;20198;-92
2022/01/14 08:05:31;;;;;;;62.47;31.30;;;2.10;99.90;;;;;;4944065;29;20267;-92
2022/01/14 08:08:59;;;;;;;60.42;29.90;;;1.90;99.90;;;;;;4958303;29;20397;-91
2022/01/14 08:12:22;;;;;;;64.47;30.83;;;3.00;99.90;;;;;;4956163;29;20205;-91
2022/01/14 08:15:47;;;;;;;58.20;30.45;;;2.00;99.90;;;;;;4954096;28;20231;-90
2022/01/14 08:19:13;;;;;;;59.67;27.88;;;2.10;99.90;;;;;;4954799;29;20198;-92
2022/01/14 08:22:38;;;;;;;60.53;27.45;;;4.30;99.90;;;;;;4951021;29;20202;-90
2022/01/14 08:26:04;;;;;;;67.22;28.08;;;2.10;99.90;;;;;;4956362;29;20198;-91
2022/01/14 08:29:35;;;;;;;79.72;33.03;;;5.30;99.90;;;;;;4955611;29;20202;-89
2022/01/14 08:33:01;;;;;;;72.35;31.15;;;1.50;99.90;;;;;;4957123;29;20205;-88
2022/01/14 08:36:28;;;;;;;66.88;31.77;;;1.80;99.90;;;;;;4949793;29;20202;-90
2022/01/14 08:39:51;;;;;;;64.90;27.63;;;2.90;99.90;;;;;;4951859;29;20220;-91
2022/01/14 08:43:17;;;;;;;45.63;23.65;;;2.10;99.90;;;;;;4956660;29;20194;-90
2022/01/14 08:46:02;;;;;;;57.65;27.73;;;2.30;99.90;;;;;;4956712;29;20190;-91
2022/01/14 08:48:33;;;;;;;61.33;26.63;;;2.40;99.90;;;;;;4947827;28;20237;-91
2022/01/14 08:51:02;;;;;;;69.85;30.92;;;2.10;99.90;;;;;;4942323;29;20237;-91
2022/01/14 08:53:28;;;;;;;56.38;26.55;;;3.90;99.90;;;;;;4944579;29;20237;-89
2022/01/14 08:56:35;;;;;;;61.10;28.87;;;2.40;99.90;;;;;;4937353;29;20171;-88
2022/01/14 09:00:03;;;;;;;65.55;29.77;;;2.30;99.90;;;;;;4970697;28;20190;-93
2022/01/14 09:06:12;;;;;;;61.55;29.08;;;1.80;99.90;;;;;;5080003;23;20233;-88
2022/01/14 09:08:40;;;;;;;59.78;31.52;;;3.60;99.90;;;;;;4979008;28;20208;-87
2022/01/14 09:11:09;;;;;;;73.22;32.67;;;3.50;99.90;;;;;;5009786;28;20219;-88
2022/01/14 09:16:11;;;;;;;70.72;33.05;;;2.10;99.90;;;;;;5044443;23;20328;-84
2022/01/14 09:18:37;;;;;;;69.43;29.33;;;6.50;99.90;;;;;;4994451;28;20196;-83
2022/01/14 09:21:04;;;;;;;75.25;30.65;;;2.30;99.90;;;;;;4989700;28;20664;-82
2022/01/14 09:23:30;;;;;;;64.22;30.42;;;3.60;99.90;;;;;;4989780;28;20316;-84
2022/01/14 09:25:56;;;;;;;69.60;28.73;;;2.40;99.90;;;;;;5006142;28;20201;-82
2022/01/14 09:28:22;;;;;;;72.65;30.40;;;2.50;99.90;;;;;;4989436;28;20169;-81
2022/01/14 09:30:48;;;;;;;70.93;32.10;;;4.60;99.90;;;;;;5005718;28;20257;-82
2022/01/14 09:33:18;;;;;;;74.17;32.20;;;2.30;99.90;;;;;;5007698;28;20252;-83
2022/01/14 09:35:45;;;;;;;83.38;33.60;;;2.70;99.90;;;;;;4993519;28;20188;-86
2022/01/14 09:38:11;;;;;;;86.10;35.65;;;2.60;99.90;;;;;;5019372;28;20187;-89
2022/01/14 09:40:41;;;;;;;63.00;30.40;;;2.50;99.90;;;;;;5019510;28;20192;-88
2022/01/14 09:43:14;;;;;;;68.20;31.52;;;2.40;99.90;;;;;;5012867;28;20268;-85
2022/01/14 09:45:40;;;;;;;69.60;34.45;;;2.80;99.90;;;;;;5001566;28;20179;-90
2022/01/14 09:48:08;;;;;;;72.10;35.40;;;2.70;99.90;;;;;;5021634;28;20184;-87
2022/01/14 09:50:36;;;;;;;78.53;32.65;;;2.80;99.90;;;;;;5009199;28;20241;-87
2022/01/14 09:53:01;;;;;;;68.57;32.17;;;2.90;99.90;;;;;;4985022;28;20201;-85
2022/01/14 09:55:27;;;;;;;82.50;35.00;;;3.00;99.90;;;;;;5001655;28;20197;-87
2022/01/14 09:57:57;;;;;;;85.47;32.93;;;2.90;99.90;;;;;;4999352;28;20205;-85
2022/01/14 10:00:23;;;;;;;86.53;33.20;;;3.00;99.90;;;;;;4990248;28;20261;-87
2022/01/14 10:02:50;;;;;;;81.70;33.40;;;3.00;99.90;;;;;;4993795;28;20236;-84
2022/01/14 10:05:39;;;;;;;86.60;36.10;;;3.30;99.90;;;;;;4994825;28;20221;-86
2022/01/14 10:08:21;;;;;;;73.13;32.80;;;3.00;99.90;;;;;;4989998;28;20189;-83
2022/01/14 10:10:59;;;;;;;72.15;30.58;;;3.80;99.90;;;;;;4972305;28;20216;-85
2022/01/14 10:13:31;;;;;;;74.30;31.35;;;3.70;99.90;;;;;;5002717;28;20511;-83
2022/01/14 10:16:05;;;;;;;69.00;31.58;;;3.10;99.90;;;;;;4989641;28;20245;-88
2022/01/14 10:18:33;;;;;;;89.03;37.40;;;3.20;99.90;;;;;;4983495;28;20193;-85
2022/01/14 10:21:05;;;;;;;85.90;30.35;;;3.10;99.90;;;;;;4980660;28;20200;-86
2022/01/14 10:23:43;;;;;;;89.63;34.60;;;3.50;99.90;;;;;;4970586;28;20584;-85
2022/01/14 10:26:10;;;;;;;75.90;32.88;;;3.20;99.90;;;;;;4964282;28;20288;-87
2022/01/14 10:28:39;;;;;;;62.30;24.48;;;3.40;99.90;;;;;;4982486;28;20186;-87
2022/01/14 10:31:08;;;;;;;81.75;32.33;;;3.30;99.90;;;;;;4967688;28;20244;-87
2022/01/14 10:33:34;;;;;;;80.35;30.95;;;5.40;99.90;;;;;;4980629;28;20208;-87
2022/01/14 10:36:00;;;;;;;85.03;33.07;;;2.70;99.90;;;;;;4980813;28;20249;-86
2022/01/14 10:38:36;;;;;;;78.60;32.50;;;3.30;99.90;;;;;;4971805;28;20413;-85
2022/01/14 10:41:07;;;;;;;86.90;29.13;;;2.00;99.90;;;;;;4948801;29;20229;-87
2022/01/14 10:43:39;;;;;;;62.38;27.75;;;3.40;99.90;;;;;;4986508;28;20412;-86
2022/01/14 10:46:09;;;;;;;65.30;28.05;;;3.40;99.90;;;;;;4981187;28;20526;-86
2022/01/14 10:48:39;;;;;;;86.90;30.15;;;3.10;99.90;;;;;;4966638;29;20179;-87
2022/01/14 10:51:07;;;;;;;83.10;32.85;;;3.40;99.90;;;;;;4976105;28;20625;-86
2022/01/14 10:53:38;;;;;;;84.20;30.77;;;3.20;99.90;;;;;;4984118;28;20202;-85
2022/01/14 10:56:19;;;;;;;70.50;30.13;;;3.90;99.90;;;;;;4980018;28;20194;-85
2022/01/14 10:58:47;;;;;;;80.40;31.88;;;4.00;99.90;;;;;;4972800;28;20204;-87
2022/01/14 11:01:18;;;;;;;80.47;31.63;;;4.40;99.90;;;;;;4953776;29;20350;-87
2022/01/14 11:03:56;;;;;;;75.95;29.88;;;6.10;99.90;;;;;;4974259;28;20200;-86
2022/01/14 11:06:33;;;;;;;74.45;29.50;;;2.20;99.90;;;;;;4985355;28;20185;-86
2022/01/14 11:09:14;;;;;;;80.60;30.80;;;3.70;99.90;;;;;;4968094;28;20183;-85
2022/01/14 11:11:47;;;;;;;72.97;28.17;;;4.90;99.90;;;;;;4986662;28;20859;-87
2022/01/14 11:14:14;;;;;;;67.80;27.02;;;3.80;99.90;;;;;;4967463;28;20242;-88
2022/01/14 11:16:41;;;;;;;66.45;28.52;;;3.80;99.90;;;;;;4986975;28;20170;-87
2022/01/14 11:19:09;;;;;;;77.22;29.40;;;3.80;99.90;;;;;;4987697;28;20185;-86
2022/01/14 11:24:26;;;;;;;73.03;29.13;;;3.90;99.90;;;;;;4965102;28;20197;-88
2022/01/14 11:27:00;;;;;;;73.78;28.80;;;3.90;99.90;;;;;;4969879;28;20792;-89
2022/01/14 11:29:32;;;;;;;65.68;29.48;;;3.30;99.90;;;;;;4972886;28;20273;-88
2022/01/14 11:32:03;;;;;;;72.60;28.30;;;4.20;99.90;;;;;;4975922;28;20200;-87
2022/01/14 11:34:43;;;;;;;68.13;29.08;;;3.90;99.90;;;;;;4961348;28;20209;-88
2022/01/14 11:37:31;;;;;;;65.28;27.60;;;4.00;99.90;;;;;;4983786;28;20279;-86
2022/01/14 11:40:10;;;;;;;71.55;29.15;;;3.90;99.90;;;;;;4987802;28;20253;-89
2022/01/14 11:42:40;;;;;;;81.15;28.73;;;4.00;99.90;;;;;;4942761;29;20628;-85
2022/01/14 11:45:06;;;;;;;76.30;28.85;;;4.30;99.90;;;;;;4976744;28;20193;-85
2022/01/14 11:47:43;;;;;;;73.68;30.52;;;4.10;99.90;;;;;;4956503;28;20205;-83
2022/01/14 11:50:18;;;;;;;74.25;28.52;;;4.10;99.90;;;;;;4946844;29;20631;-87
2022/01/14 11:52:45;;;;;;;72.93;28.83;;;4.90;99.90;;;;;;4625989;28;9999809;-88
2022/01/14 11:55:34;;;;;;;66.22;26.77;;;4.10;99.90;;;;;;4954964;28;20449;-89
2022/01/14 11:58:09;;;;;;;63.45;27.15;;;4.00;99.90;;;;;;4959893;28;20212;-89
2022/01/14 12:00:41;;;;;;;77.47;30.20;;;4.20;99.90;;;;;;4951173;28;20212;-87
2022/01/14 12:03:06;;;;;;;80.90;27.90;;;4.10;99.90;;;;;;4980806;28;20213;-88
2022/01/14 12:05:33;;;;;;;75.93;29.83;;;;;;;;;;4962526;28;20195;-88
2022/01/14 12:08:01;;;;;;;78.15;31.73;;;4.30;99.90;;;;;;4954507;28;20198;-83
2022/01/14 12:10:33;;;;;;;73.85;28.13;;;4.60;99.90;;;;;;4967137;28;20432;-81
2022/01/14 12:13:23;;;;;;;79.85;29.60;;;4.40;99.90;;;;;;4966019;28;20676;-82
2022/01/14 12:16:02;;;;;;;69.15;25.60;;;4.40;99.90;;;;;;4947355;28;20696;-83
2022/01/14 12:18:45;;;;;;;62.33;27.35;;;4.10;99.90;;;;;;4968824;28;20205;-83
2022/01/14 12:21:12;;;;;;;69.55;28.23;;;4.20;99.90;;;;;;4948700;28;20244;-83
2022/01/14 12:23:38;;;;;;;71.63;26.98;;;4.30;99.90;;;;;;4953490;28;20679;-83
2022/01/14 12:26:23;;;;;;;65.87;25.60;;;5.30;99.90;;;;;;4966374;28;20197;-82
2022/01/14 12:29:09;;;;;;;62.80;22.45;;;4.10;99.90;;;;;;4971645;28;20767;-84
2022/01/14 12:32:07;;;;;;;53.88;24.33;;;4.40;99.90;;;;;;4942806;28;20190;-84
2022/01/14 12:34:34;;;;;;;58.55;22.98;;;4.50;99.90;;;;;;4961745;28;20679;-82
2022/01/14 12:36:59;;;;;;;76.72;25.98;;;5.30;99.90;;;;;;4946981;28;20186;-82
2022/01/14 12:39:26;;;;;;;91.37;34.73;;;5.20;99.90;;;;;;4948267;28;20182;-85
2022/01/14 12:41:52;;;;;;;74.57;26.15;;;4.40;99.90;;;;;;4985777;28;20178;-88
2022/01/14 12:44:18;;;;;;;62.33;26.85;;;4.60;99.90;;;;;;4981032;28;20236;-84
2022/01/14 12:46:55;;;;;;;60.85;26.52;;;4.40;99.90;;;;;;4993174;28;20911;-84
2022/01/14 12:49:23;;;;;;;67.82;26.63;;;4.70;99.90;;;;;;4947414;28;20219;-87
2022/01/14 12:52:12;;;;;;;64.38;27.42;;;3.30;99.90;;;;;;4983836;28;20221;-86
2022/01/14 12:55:00;;;;;;;62.83;25.48;;;7.40;99.90;;;;;;4981511;28;20186;-85
2022/01/14 12:57:29;;;;;;;66.43;26.05;;;5.30;99.90;;;;;;4981819;28;20634;-88
2022/01/14 12:59:55;;;;;;;68.40;28.13;;;8.60;99.90;;;;;;4994368;28;20215;-87
2022/01/14 13:02:29;;;;;;;60.93;25.97;;;7.40;99.90;;;;;;4980038;28;20189;-86
2022/01/14 13:05:08;;;;;;;59.60;27.88;;;4.70;99.90;;;;;;4968487;28;20445;-86
2022/01/14 13:07:36;;;;;;;72.13;26.58;;;4.80;99.90;;;;;;4950569;29;20262;-84
2022/01/14 13:10:04;;;;;;;58.03;26.83;;;6.90;99.90;;;;;;4969695;28;20268;-86
2022/01/14 13:12:34;;;;;;;63.03;24.05;;;4.70;99.90;;;;;;5211114;23;20188;-88
2022/01/14 13:15:03;;;;;;;51.75;24.80;;;5.60;99.90;;;;;;4962866;28;20229;-85
2022/01/14 13:17:33;;;;;;;54.80;25.15;;;4.80;99.90;;;;;;4984157;28;20194;-90
2022/01/14 13:20:12;;;;;;;52.63;23.17;;;4.60;99.90;;;;;;4975138;28;20639;-89
2022/01/14 13:22:44;;;;;;;64.13;24.80;;;4.40;99.90;;;;;;4957615;28;20557;-89
2022/01/14 13:25:14;;;;;;;56.40;22.80;;;4.80;99.90;;;;;;4978339;28;20178;-89
2022/01/14 13:27:48;;;;;;;48.85;24.73;;;4.80;99.90;;;;;;4976024;28;20198;-88
2022/01/14 13:30:17;;;;;;;51.60;24.60;;;5.00;99.90;;;;;;4960392;28;20216;-87
2022/01/14 13:32:47;;;;;;;48.80;21.58;;;5.10;99.90;;;;;;4946464;28;20269;-89